Time;durP1;ratioP1;P1;durP2;ratioP2;P2;SDS_P1;SDS_P2;PMS_P1;PMS_P2;Temp;Humidity;BMP_temperature;BMP_pressure;BME280_temperature;BME280_humidity;BME280_pressure;Samples;Min_cycle;Max_cycle;Signal;HPM_P1;HPM_P2
2022/08/13 00:01:18;;;;;;;9.73;8.73;;;;;;;;;;10280864;28;20367;-58
2022/08/13 00:06:35;;;;;;;9.80;8.88;;;;;;;;;;10278411;28;20075;-58
2022/08/13 00:17:17;;;;;;;10.25;9.18;;;;;;;;;;10277546;28;20072;-57
2022/08/13 00:22:19;;;;;;;11.95;9.45;;;;;;;;;;10278231;28;20068;-58
2022/08/13 00:27:28;;;;;;;10.48;9.38;;;;;;;;;;10279594;28;20101;-58
2022/08/13 00:32:48;;;;;;;10.80;9.40;;;;;;;;;;10278372;28;20080;-57
2022/08/13 00:37:49;;;;;;;10.52;9.52;;;;;;;;;;10279920;28;20056;-59
2022/08/13 00:42:50;;;;;;;10.10;9.20;;;;;;;;;;10280371;28;20466;-59
2022/08/13 00:53:09;;;;;;;13.30;9.85;;;;;;;;;;10275761;28;20064;-57
2022/08/13 00:58:07;;;;;;;10.15;8.57;;;;;;;;;;10279527;28;20064;-58
2022/08/13 01:03:17;;;;;;;10.82;9.30;;;;;;;;;;10278836;28;20458;-58
2022/08/13 01:08:18;;;;;;;16.02;8.95;;;;;;;;;;10277747;28;20485;-58
2022/08/13 01:13:25;;;;;;;11.80;9.65;;;;;;;;;;10277591;28;20065;-58
2022/08/13 01:18:27;;;;;;;9.63;8.68;;;;;;;;;;10278184;28;20060;-58
2022/08/13 01:23:29;;;;;;;;;;;;;;;;;;10278270;28;20073;-58
2022/08/13 01:28:39;;;;;;;10.10;9.10;;;;;;;;;;10275475;28;20408;-59
2022/08/13 01:33:41;;;;;;;11.73;8.80;;;;;;;;;;10274143;28;20494;-59
2022/08/13 01:38:47;;;;;;;10.25;9.07;;;;;;;;;;10277698;28;20394;-59
2022/08/13 01:43:48;;;;;;;11.05;9.23;;;;;;;;;;10277259;28;20084;-58
2022/08/13 01:54:05;;;;;;;9.50;8.68;;;;;;;;;;10277457;28;20077;-59
2022/08/13 01:59:25;;;;;;;12.55;10.00;;;;;;;;;;10274798;28;20084;-59
2022/08/13 02:04:44;;;;;;;10.15;8.80;;;;;;;;;;10273915;28;20087;-59
2022/08/13 02:09:58;;;;;;;14.25;9.65;;;;;;;;;;10275399;28;20167;-59
2022/08/13 02:15:02;;;;;;;10.52;9.57;;;;;;;;;;10269098;28;20064;-58
2022/08/13 02:20:03;;;;;;;16.50;9.60;;;;;;;;;;10268890;28;20064;-59
2022/08/13 02:25:01;;;;;;;10.15;9.13;;;;;;;;;;10274415;28;20049;-60
2022/08/13 02:30:00;;;;;;;11.85;9.05;;;;;;;;;;10274345;28;20068;-59
2022/08/13 02:34:59;;;;;;;10.73;9.45;;;;;;;;;;10268388;28;20064;-59
2022/08/13 02:40:00;;;;;;;10.48;9.57;;;;;;;;;;10268201;28;20103;-59
2022/08/13 02:45:03;;;;;;;11.30;10.15;;;;;;;;;;10267875;28;20067;-58
2022/08/13 02:50:08;;;;;;;12.55;9.70;;;;;;;;;;10273666;28;20088;-59
2022/08/13 02:55:09;;;;;;;11.13;9.50;;;;;;;;;;10273412;28;20076;-58
2022/08/13 03:00:13;;;;;;;10.57;9.57;;;;;;;;;;10273186;28;20064;-58
2022/08/13 03:05:13;;;;;;;12.02;10.85;;;;;;;;;;10272930;28;20140;-59
2022/08/13 03:10:13;;;;;;;11.73;9.60;;;;;;;;;;10273211;28;20080;-59
2022/08/13 03:15:18;;;;;;;10.25;9.25;;;;;;;;;;10273322;28;20463;-59
2022/08/13 03:20:20;;;;;;;11.13;10.02;;;;;;;;;;10272524;28;20060;-59
2022/08/13 03:25:19;;;;;;;11.93;10.30;;;;;;;;;;10271928;28;20071;-59
2022/08/13 03:30:23;;;;;;;12.23;10.32;;;;;;;;;;10268517;28;20099;-58
2022/08/13 03:35:28;;;;;;;13.55;10.35;;;;;;;;;;10271430;28;20075;-59
2022/08/13 03:45:59;;;;;;;11.27;10.20;;;;;;;;;;10271000;28;20044;-58
2022/08/13 03:51:01;;;;;;;10.50;9.40;;;;;;;;;;10269152;28;20072;-58
2022/08/13 03:56:01;;;;;;;12.00;10.35;;;;;;;;;;10268555;28;20064;-58
2022/08/13 04:01:01;;;;;;;11.05;9.82;;;;;;;;;;10271731;28;20525;-58
2022/08/13 04:06:01;;;;;;;11.23;10.07;;;;;;;;;;10268681;28;20075;-58
2022/08/13 04:11:00;;;;;;;12.13;10.93;;;;;;;;;;10271354;28;20080;-59
2022/08/13 04:15:58;;;;;;;11.55;10.30;;;;;;;;;;10269576;28;20072;-59
2022/08/13 04:21:01;;;;;;;13.55;11.15;;;;;;;;;;10270672;28;20116;-58
2022/08/13 04:26:00;;;;;;;11.90;10.52;;;;;;;;;;10269358;28;20080;-59
2022/08/13 04:31:00;;;;;;;15.15;12.40;;;;;;;;;;10268394;28;20088;-58
2022/08/13 04:36:05;;;;;;;12.73;11.15;;;;;;;;;;10267735;28;20064;-58
2022/08/13 04:41:03;;;;;;;21.55;11.02;;;;;;;;;;10267842;28;20088;-58
2022/08/13 04:46:02;;;;;;;15.30;10.95;;;;;;;;;;10272012;28;20462;-58
2022/08/13 04:51:01;;;;;;;14.43;10.80;;;;;;;;;;10276642;28;20084;-58
2022/08/13 04:56:02;;;;;;;12.07;10.93;;;;;;;;;;10278797;28;20083;-58
2022/08/13 05:01:15;;;;;;;14.95;10.80;;;;;;;;;;10274361;28;20068;-58
2022/08/13 05:06:33;;;;;;;12.52;11.05;;;;;;;;;;10273376;28;20088;-59
2022/08/13 05:11:33;;;;;;;11.45;9.82;;;;;;;;;;10272890;28;20091;-59
2022/08/13 05:16:34;;;;;;;11.80;10.63;;;;;;;;;;10277461;28;20080;-59
2022/08/13 05:21:33;;;;;;;12.80;10.07;;;;;;;;;;10275385;28;20072;-58
2022/08/13 05:26:52;;;;;;;13.18;11.88;;;;;;;;;;10272643;28;20069;-59
2022/08/13 05:32:05;;;;;;;;;;;;;;;;;;10276110;28;20087;-59
2022/08/13 05:37:16;;;;;;;10.85;9.75;;;;;;;;;;10274915;28;19967;-59
2022/08/13 05:42:38;;;;;;;13.90;12.60;;;;;;;;;;10272998;28;20148;-57
2022/08/13 05:47:40;;;;;;;12.57;10.25;;;;;;;;;;10274236;28;20561;-58
2022/08/13 05:52:40;;;;;;;10.95;9.85;;;;;;;;;;10272470;28;20072;-58
2022/08/13 05:57:47;;;;;;;10.75;9.63;;;;;;;;;;10271533;28;20080;-58
2022/08/13 06:08:05;;;;;;;12.25;10.38;;;;;;;;;;10270478;28;20080;-59
2022/08/13 06:13:25;;;;;;;10.68;9.60;;;;;;;;;;10271595;28;20084;-59
2022/08/13 06:18:40;;;;;;;13.52;11.77;;;;;;;;;;10271134;28;20068;-59
2022/08/13 06:23:57;;;;;;;12.73;10.82;;;;;;;;;;10274528;28;20087;-59
2022/08/13 06:28:59;;;;;;;11.55;10.38;;;;;;;;;;10268412;28;20065;-59
2022/08/13 06:33:58;;;;;;;14.93;13.38;;;;;;;;;;10267896;28;20069;-59
2022/08/13 06:39:17;;;;;;;11.27;10.18;;;;;;;;;;10267022;28;20066;-59
2022/08/13 06:44:18;;;;;;;12.93;10.15;;;;;;;;;;10274066;28;20407;-59
2022/08/13 06:49:16;;;;;;;10.27;9.38;;;;;;;;;;10274807;28;20068;-59
2022/08/13 06:54:15;;;;;;;10.27;9.27;;;;;;;;;;10273589;28;20073;-60
2022/08/13 06:59:27;;;;;;;10.43;9.40;;;;;;;;;;10273575;28;20102;-60
2022/08/13 07:04:47;;;;;;;15.00;11.80;;;;;;;;;;10271574;28;20077;-60
2022/08/13 07:09:49;;;;;;;19.27;13.10;;;;;;;;;;10273019;28;20084;-60
2022/08/13 07:14:49;;;;;;;10.90;9.85;;;;;;;;;;10273553;28;20103;-60
2022/08/13 07:19:56;;;;;;;11.43;10.05;;;;;;;;;;10272675;28;20049;-59
2022/08/13 07:25:05;;;;;;;10.50;9.43;;;;;;;;;;10267743;28;20073;-60
2022/08/13 07:30:08;;;;;;;13.02;11.80;;;;;;;;;;10272435;28;20069;-59
2022/08/13 07:35:12;;;;;;;12.68;11.10;;;;;;;;;;10272919;28;20079;-59
2022/08/13 07:40:16;;;;;;;13.50;8.50;;;;;;;;;;10271832;28;20064;-60
2022/08/13 07:45:23;;;;;;;13.60;10.63;;;;;;;;;;10271912;28;20469;-59
2022/08/13 07:50:42;;;;;;;11.63;10.07;;;;;;;;;;10272134;28;20084;-60
2022/08/13 07:56:00;;;;;;;10.45;9.20;;;;;;;;;;10269863;28;20076;-60
2022/08/13 08:01:20;;;;;;;10.27;9.20;;;;;;;;;;10269864;28;20077;-59
2022/08/13 08:06:20;;;;;;;12.60;10.38;;;;;;;;;;10271862;28;20501;-60
2022/08/13 08:16:50;;;;;;;12.18;10.80;;;;;;;;;;10267990;28;20052;-59
2022/08/13 08:21:48;;;;;;;12.93;9.10;;;;;;;;;;10279316;28;20076;-60
2022/08/13 08:27:09;;;;;;;10.23;9.32;;;;;;;;;;10280292;28;20053;-60
2022/08/13 08:32:17;;;;;;;11.20;9.23;;;;;;;;;;10278549;28;20072;-60
2022/08/13 08:43:00;;;;;;;18.50;9.75;;;;;;;;;;10277821;28;20088;-59
2022/08/13 08:48:20;;;;;;;15.35;13.48;;;;;;;;;;10277337;28;20083;-57
2022/08/13 08:53:24;;;;;;;17.35;15.52;;;;;;;;;;10277435;28;20475;-58
2022/08/13 08:58:43;;;;;;;17.23;12.38;;;;;;;;;;10270869;28;20168;-58
2022/08/13 09:03:46;;;;;;;16.10;9.98;;;;;;;;;;10275360;28;20072;-60
2022/08/13 09:08:56;;;;;;;11.15;10.05;;;;;;;;;;10276536;28;20458;-59
2022/08/13 09:13:55;;;;;;;17.25;11.90;;;;;;;;;;10278260;28;20072;-59
2022/08/13 09:18:57;;;;;;;14.10;10.38;;;;;;;;;;10277303;28;20068;-59
2022/08/13 09:23:55;;;;;;;19.05;11.85;;;;;;;;;;10275462;28;20084;-58
2022/08/13 09:29:14;;;;;;;14.07;11.20;;;;;;;;;;10271650;28;20061;-59
2022/08/13 09:34:15;;;;;;;15.23;13.65;;;;;;;;;;10273185;28;20071;-59
2022/08/13 09:39:20;;;;;;;14.35;9.73;;;;;;;;;;10275918;28;20067;-59
2022/08/13 09:44:19;;;;;;;19.58;17.60;;;;;;;;;;10271631;28;20510;-59
2022/08/13 09:49:22;;;;;;;25.98;15.20;;;;;;;;;;10271904;28;20060;-59
2022/08/13 09:54:41;;;;;;;13.77;10.57;;;;;;;;;;10269855;28;20502;-58
2022/08/13 09:59:44;;;;;;;9.85;8.88;;;;;;;;;;10274521;28;20041;-57
2022/08/13 10:04:57;;;;;;;11.88;9.75;;;;;;;;;;10275158;28;20496;-57
2022/08/13 10:09:55;;;;;;;10.88;9.88;;;;;;;;;;10274754;28;20084;-58
2022/08/13 10:15:14;;;;;;;11.73;10.63;;;;;;;;;;10274727;28;20064;-57
2022/08/13 10:20:24;;;;;;;11.35;8.70;;;;;;;;;;10275184;28;20037;-58
2022/08/13 10:25:22;;;;;;;10.10;8.13;;;;;;;;;;10274752;28;20076;-58
2022/08/13 10:30:36;;;;;;;9.35;8.48;;;;;;;;;;10273894;28;20068;-59
2022/08/13 10:35:55;;;;;;;10.68;8.57;;;;;;;;;;10271811;28;20450;-58
2022/08/13 10:40:54;;;;;;;10.35;8.20;;;;;;;;;;10273343;28;20087;-58
2022/08/13 10:45:56;;;;;;;12.13;9.60;;;;;;;;;;10273326;28;20041;-59
2022/08/13 10:51:10;;;;;;;9.63;8.63;;;;;;;;;;10274091;28;20076;-59
2022/08/13 10:56:11;;;;;;;10.90;8.27;;;;;;;;;;10273934;28;20074;-58
2022/08/13 11:01:10;;;;;;;8.75;7.70;;;;;;;;;;10273782;28;20085;-58
2022/08/13 11:06:12;;;;;;;10.85;8.60;;;;;;;;;;10272528;28;20084;-59
2022/08/13 11:11:11;;;;;;;10.15;8.20;;;;;;;;;;10271554;28;20080;-59
2022/08/13 11:21:49;;;;;;;10.23;8.07;;;;;;;;;;10267604;28;20190;-58
2022/08/13 11:27:07;;;;;;;9.77;8.00;;;;;;;;;;10272631;28;20514;-59
2022/08/13 11:32:06;;;;;;;12.70;8.13;;;;;;;;;;10273095;28;20107;-59
2022/08/13 11:37:06;;;;;;;11.27;8.65;;;;;;;;;;10272788;28;20084;-59
2022/08/13 11:42:09;;;;;;;10.05;9.07;;;;;;;;;;10272304;28;20053;-59
2022/08/13 11:47:08;;;;;;;14.30;8.27;;;;;;;;;;10273531;28;20071;-59
2022/08/13 11:52:28;;;;;;;11.40;8.32;;;;;;;;;;10272117;28;20080;-59
2022/08/13 11:57:27;;;;;;;10.20;9.00;;;;;;;;;;10272245;28;20425;-59
2022/08/13 12:02:44;;;;;;;19.33;9.45;;;;;;;;;;10271084;28;20045;-58
2022/08/13 12:07:44;;;;;;;13.98;8.32;;;;;;;;;;10272822;28;20059;-58
2022/08/13 12:12:45;;;;;;;9.90;8.55;;;;;;;;;;10271717;28;20457;-58
2022/08/13 12:17:48;;;;;;;9.57;8.43;;;;;;;;;;10271712;28;20053;-58
2022/08/13 12:22:51;;;;;;;10.38;8.65;;;;;;;;;;10271266;28;20178;-58
2022/08/13 12:27:50;;;;;;;9.93;7.65;;;;;;;;;;10271905;28;20077;-58
2022/08/13 12:32:49;;;;;;;12.38;8.45;;;;;;;;;;10271582;28;20083;-58
2022/08/13 12:37:48;;;;;;;9.93;7.88;;;;;;;;;;10271275;28;20469;-58
2022/08/13 12:43:08;;;;;;;9.45;7.45;;;;;;;;;;10268805;28;20107;-59
2022/08/13 12:48:29;;;;;;;8.75;6.88;;;;;;;;;;10271456;28;20079;-59
2022/08/13 12:53:27;;;;;;;9.68;7.22;;;;;;;;;;10270984;28;20065;-59
2022/08/13 12:58:47;;;;;;;11.18;7.63;;;;;;;;;;10268332;28;20132;-58
2022/08/13 13:03:48;;;;;;;8.43;7.50;;;;;;;;;;10270324;28;20072;-58
2022/08/13 13:08:50;;;;;;;12.55;7.57;;;;;;;;;;10278281;28;20079;-58
2022/08/13 13:13:51;;;;;;;12.23;7.65;;;;;;;;;;10278264;28;20072;-58
2022/08/13 13:19:01;;;;;;;11.75;10.52;;;;;;;;;;10277812;28;20075;-59
2022/08/13 13:24:00;;;;;;;15.13;10.15;;;;;;;;;;10277721;28;20063;-59
2022/08/13 13:29:04;;;;;;;12.32;8.27;;;;;;;;;;10276985;28;20063;-58
2022/08/13 13:34:02;;;;;;;13.13;8.68;;;;;;;;;;10277329;28;20069;-59
2022/08/13 13:39:01;;;;;;;12.93;7.25;;;;;;;;;;10276964;28;20072;-58
2022/08/13 13:43:59;;;;;;;8.63;7.72;;;;;;;;;;10276623;28;20068;-59
2022/08/13 13:49:19;;;;;;;9.70;8.27;;;;;;;;;;10276906;28;20068;-59
2022/08/13 13:54:18;;;;;;;14.60;9.50;;;;;;;;;;10276689;28;20065;-59
2022/08/13 13:59:21;;;;;;;8.18;6.53;;;;;;;;;;10275849;28;20065;-59
2022/08/13 14:04:41;;;;;;;9.32;8.23;;;;;;;;;;10273461;28;20065;-59
2022/08/13 14:09:59;;;;;;;10.23;9.10;;;;;;;;;;10269519;28;20080;-59
2022/08/13 14:15:01;;;;;;;16.08;9.70;;;;;;;;;;10273587;28;20072;-59
2022/08/13 14:20:04;;;;;;;15.18;11.23;;;;;;;;;;10275081;28;20068;-59
2022/08/13 14:25:04;;;;;;;11.07;7.22;;;;;;;;;;10274542;28;20061;-59
2022/08/13 14:30:04;;;;;;;14.15;8.73;;;;;;;;;;10274587;28;20462;-59
2022/08/13 14:35:05;;;;;;;9.27;7.53;;;;;;;;;;10274505;28;20072;-59
2022/08/13 14:40:14;;;;;;;11.00;7.82;;;;;;;;;;10273725;28;20283;-59
2022/08/13 14:50:51;;;;;;;11.88;8.88;;;;;;;;;;10269603;28;20077;-59
2022/08/13 14:55:56;;;;;;;9.43;8.48;;;;;;;;;;10270697;28;20068;-59
2022/08/13 15:00:56;;;;;;;10.88;8.77;;;;;;;;;;10274188;28;20502;-58
2022/08/13 15:06:00;;;;;;;14.68;8.10;;;;;;;;;;10273327;28;20469;-59
2022/08/13 15:11:00;;;;;;;;;;;;;;;;;;10273723;28;20064;-58
2022/08/13 15:16:07;;;;;;;;;;;;;;;;;;10273638;28;20440;-59
2022/08/13 15:21:13;;;;;;;10.00;7.85;;;;;;;;;;10273077;28;19960;-58
2022/08/13 15:26:15;;;;;;;8.00;7.20;;;;;;;;;;10270291;28;20442;-58
2022/08/13 15:31:15;;;;;;;10.43;9.02;;;;;;;;;;10272923;28;20072;-58
2022/08/13 15:36:16;;;;;;;8.27;7.47;;;;;;;;;;10270235;28;20485;-59
2022/08/13 15:41:34;;;;;;;10.73;7.97;;;;;;;;;;10271756;28;20533;-59
2022/08/13 15:46:35;;;;;;;10.35;9.07;;;;;;;;;;10272519;28;20053;-58
2022/08/13 15:51:36;;;;;;;11.05;7.60;;;;;;;;;;10264926;28;20068;-58
2022/08/13 15:56:55;;;;;;;9.77;8.75;;;;;;;;;;10252249;28;20532;-58
2022/08/13 16:02:02;;;;;;;12.95;11.65;;;;;;;;;;10267892;28;20091;-59
2022/08/13 16:07:22;;;;;;;9.30;8.40;;;;;;;;;;10268059;28;20072;-59
2022/08/13 16:12:23;;;;;;;10.35;7.50;;;;;;;;;;10267459;28;20103;-59
2022/08/13 16:17:30;;;;;;;8.60;7.75;;;;;;;;;;10265243;28;20068;-59
2022/08/13 16:22:33;;;;;;;9.88;8.45;;;;;;;;;;10266368;28;20096;-58
2022/08/13 16:27:32;;;;;;;8.90;8.05;;;;;;;;;;10266934;28;20076;-58
2022/08/13 16:32:51;;;;;;;15.80;8.45;;;;;;;;;;10267497;28;20076;-57
2022/08/13 16:37:55;;;;;;;10.77;8.38;;;;;;;;;;10268103;28;20095;-57
2022/08/13 16:42:54;;;;;;;14.23;11.98;;;;;;;;;;10276725;28;20080;-58
2022/08/13 16:47:54;;;;;;;16.30;13.95;;;;;;;;;;10279104;28;20589;-58
2022/08/13 16:52:54;;;;;;;21.10;18.77;;;;;;;;;;10278035;28;20092;-58
2022/08/13 16:57:52;;;;;;;17.83;13.95;;;;;;;;;;10279206;28;20768;-57
2022/08/13 17:13:32;;;;;;;12.20;7.57;;;;;;;;;;10279245;28;20072;-58
2022/08/13 17:18:34;;;;;;;;;;;;;;;;;;10275043;28;20088;-58
2022/08/13 17:23:34;;;;;;;11.55;7.93;;;;;;;;;;10273990;28;19956;-59
2022/08/13 17:28:34;;;;;;;8.45;7.63;;;;;;;;;;10273932;28;20048;-58
2022/08/13 17:33:36;;;;;;;8.10;6.85;;;;;;;;;;10273691;28;20079;-58
2022/08/13 17:38:55;;;;;;;13.82;7.75;;;;;;;;;;10276226;28;20071;-58
2022/08/13 17:43:55;;;;;;;10.75;7.32;;;;;;;;;;10277176;28;20049;-57
2022/08/13 17:49:07;;;;;;;11.50;7.07;;;;;;;;;;10277892;28;20060;-57
2022/08/13 17:54:17;;;;;;;8.85;6.82;;;;;;;;;;10276748;28;20072;-58
2022/08/13 17:59:16;;;;;;;8.27;7.35;;;;;;;;;;10277215;28;20076;-58
2022/08/13 18:04:16;;;;;;;8.80;6.32;;;;;;;;;;10277049;28;20091;-58
2022/08/13 18:09:15;;;;;;;10.43;7.57;;;;;;;;;;10277182;28;20071;-58
2022/08/13 18:14:21;;;;;;;7.45;6.75;;;;;;;;;;10276678;28;20510;-59
2022/08/13 18:19:32;;;;;;;11.77;6.67;;;;;;;;;;10276212;28;20059;-59
2022/08/13 18:24:30;;;;;;;13.10;6.50;;;;;;;;;;10275928;28;20077;-58
2022/08/13 18:29:32;;;;;;;10.82;6.28;;;;;;;;;;10276168;28;20091;-59
2022/08/13 18:34:50;;;;;;;11.65;7.13;;;;;;;;;;10274203;28;20083;-59
2022/08/13 18:39:49;;;;;;;12.75;6.90;;;;;;;;;;10274722;28;20096;-59
2022/08/13 18:44:50;;;;;;;12.38;7.63;;;;;;;;;;10274790;28;20131;-59
2022/08/13 18:49:52;;;;;;;7.88;6.68;;;;;;;;;;10274240;28;20075;-59
2022/08/13 18:54:52;;;;;;;11.05;7.22;;;;;;;;;;10274020;28;20072;-59
2022/08/13 18:59:53;;;;;;;9.63;6.35;;;;;;;;;;10274049;28;20064;-58
2022/08/13 19:05:00;;;;;;;7.32;6.22;;;;;;;;;;10273275;28;20069;-58
2022/08/13 19:10:19;;;;;;;10.85;7.05;;;;;;;;;;10269937;28;20075;-59
2022/08/13 19:15:20;;;;;;;11.98;7.40;;;;;;;;;;10273908;28;20077;-58
2022/08/13 19:20:20;;;;;;;8.15;7.35;;;;;;;;;;10273684;28;20091;-58
2022/08/13 19:25:19;;;;;;;12.23;8.23;;;;;;;;;;10273264;28;20071;-59
2022/08/13 19:30:21;;;;;;;8.50;7.60;;;;;;;;;;10273507;28;20502;-58
2022/08/13 19:35:23;;;;;;;8.95;7.45;;;;;;;;;;10272875;28;20080;-58
2022/08/13 19:40:24;;;;;;;11.52;8.07;;;;;;;;;;10272425;28;20104;-59
2022/08/13 19:45:37;;;;;;;10.90;8.73;;;;;;;;;;10272355;28;20075;-58
2022/08/13 19:50:52;;;;;;;9.40;7.53;;;;;;;;;;10268576;28;20040;-58
2022/08/13 19:55:51;;;;;;;7.68;6.78;;;;;;;;;;10269189;28;20080;-57
2022/08/13 20:00:53;;;;;;;8.57;7.30;;;;;;;;;;10269948;28;20481;-57
2022/08/13 20:05:53;;;;;;;9.27;7.13;;;;;;;;;;10272554;28;20524;-58
2022/08/13 20:10:51;;;;;;;8.30;7.10;;;;;;;;;;10272200;28;20087;-58
2022/08/13 20:15:50;;;;;;;10.25;8.27;;;;;;;;;;10276241;28;20497;-57
2022/08/13 20:20:55;;;;;;;9.65;7.18;;;;;;;;;;10280466;28;20083;-58
2022/08/13 20:25:55;;;;;;;8.70;7.35;;;;;;;;;;10279864;28;20072;-58
2022/08/13 20:31:12;;;;;;;8.80;7.70;;;;;;;;;;10277213;28;20493;-58
2022/08/13 20:36:15;;;;;;;11.23;7.35;;;;;;;;;;10280021;28;20095;-56
2022/08/13 20:41:14;;;;;;;9.38;7.53;;;;;;;;;;10279610;28;20088;-58
2022/08/13 20:46:14;;;;;;;14.32;7.47;;;;;;;;;;10279393;28;20108;-58
2022/08/13 20:51:17;;;;;;;13.48;7.82;;;;;;;;;;10277227;28;20068;-58
2022/08/13 20:56:15;;;;;;;12.32;8.10;;;;;;;;;;10277026;28;20073;-58
2022/08/13 21:01:36;;;;;;;10.52;8.32;;;;;;;;;;10278945;28;20099;-57
2022/08/13 21:06:41;;;;;;;8.27;7.40;;;;;;;;;;10279931;28;20084;-57
2022/08/13 21:11:49;;;;;;;11.02;8.60;;;;;;;;;;10279721;28;20041;-58
2022/08/13 21:16:47;;;;;;;9.73;7.00;;;;;;;;;;10278825;28;20091;-58
2022/08/13 21:21:47;;;;;;;9.10;7.38;;;;;;;;;;10278381;28;20077;-58
2022/08/13 21:26:54;;;;;;;8.13;7.32;;;;;;;;;;10277062;28;20076;-57
2022/08/13 21:31:57;;;;;;;9.63;8.03;;;;;;;;;;10278770;28;20076;-58
2022/08/13 21:37:10;;;;;;;8.05;6.93;;;;;;;;;;10277876;28;20076;-58
2022/08/13 21:42:09;;;;;;;10.82;7.18;;;;;;;;;;10276923;28;20080;-57
2022/08/13 21:47:07;;;;;;;8.68;7.38;;;;;;;;;;10277655;28;20083;-58
2022/08/13 21:52:16;;;;;;;8.07;7.30;;;;;;;;;;10277645;28;20045;-58
2022/08/13 21:57:15;;;;;;;9.55;8.00;;;;;;;;;;10276567;28;20072;-56
2022/08/13 22:02:13;;;;;;;8.75;7.25;;;;;;;;;;10277165;28;20502;-58
2022/08/13 22:07:17;;;;;;;7.90;7.10;;;;;;;;;;10276490;28;20080;-55
2022/08/13 22:12:35;;;;;;;12.63;8.30;;;;;;;;;;10277341;28;20455;-56
2022/08/13 22:17:36;;;;;;;10.57;9.43;;;;;;;;;;10288704;28;20080;-56
2022/08/13 22:22:36;;;;;;;12.88;9.85;;;;;;;;;;10276451;28;20079;-55
2022/08/13 22:27:34;;;;;;;17.17;12.23;;;;;;;;;;10276194;28;20080;-56
2022/08/13 22:32:34;;;;;;;15.15;12.10;;;;;;;;;;10276111;28;20446;-56
2022/08/13 22:37:33;;;;;;;19.77;12.98;;;;;;;;;;10275783;28;20428;-58
2022/08/13 22:42:42;;;;;;;17.17;11.63;;;;;;;;;;10276512;28;20537;-56
2022/08/13 22:47:41;;;;;;;33.55;14.07;;;;;;;;;;10276770;28;20083;-59
2022/08/13 22:52:45;;;;;;;16.30;13.00;;;;;;;;;;10275459;28;20087;-57
2022/08/13 22:57:47;;;;;;;18.05;12.85;;;;;;;;;;10273512;28;20081;-57
2022/08/13 23:02:49;;;;;;;16.55;13.02;;;;;;;;;;10274016;28;22526;-57
2022/08/13 23:07:48;;;;;;;14.68;12.20;;;;;;;;;;10274100;28;20057;-57
2022/08/13 23:12:51;;;;;;;12.88;11.07;;;;;;;;;;10273583;28;21743;-57
2022/08/13 23:17:51;;;;;;;14.63;13.02;;;;;;;;;;10273912;28;20077;-56
2022/08/13 23:22:51;;;;;;;19.05;13.05;;;;;;;;;;10274102;28;20551;-56
2022/08/13 23:27:51;;;;;;;14.70;12.65;;;;;;;;;;10274119;28;20069;-56
2022/08/13 23:32:59;;;;;;;12.45;11.00;;;;;;;;;;10273782;28;20083;-57
2022/08/13 23:37:58;;;;;;;11.18;10.15;;;;;;;;;;10273609;28;20076;-56
2022/08/13 23:42:57;;;;;;;14.40;7.95;;;;;;;;;;10272515;28;20755;-55
2022/08/13 23:47:57;;;;;;;9.35;7.35;;;;;;;;;;10273095;28;20087;-56
2022/08/13 23:52:55;;;;;;;12.45;8.02;;;;;;;;;;10272296;28;20087;-57
2022/08/13 23:57:54;;;;;;;8.77;7.97;;;;;;;;;;10272745;28;20112;-58
